createdAt,value
2023-01-18T00:03:35.595Z,9.51
2023-01-18T00:08:40.125Z,9.69
2023-01-18T00:13:43.683Z,9.35
2023-01-18T00:18:57.606Z,9.42
2023-01-18T00:24:01.505Z,9.45
2023-01-18T00:29:05.353Z,9.50
2023-01-18T00:34:09.050Z,9.43
2023-01-18T00:39:13.307Z,9.72
2023-01-18T00:44:16.488Z,9.61
2023-01-18T00:49:20.079Z,9.85
2023-01-18T00:54:24.615Z,9.66
2023-01-18T00:59:27.626Z,9.71
2023-01-18T01:04:49.286Z,9.75
2023-01-18T01:09:52.413Z,9.97
2023-01-18T01:15:14.034Z,9.82
2023-01-18T01:20:36.165Z,9.59
2023-01-18T01:25:59.125Z,9.55
2023-01-18T01:31:06.397Z,9.57
2023-01-18T01:36:14.374Z,9.45
2023-01-18T01:41:21.400Z,9.32
2023-01-18T01:46:46.721Z,9.11
2023-01-18T01:51:55.765Z,9.18
2023-01-18T01:57:08.458Z,9.26
2023-01-18T02:02:12.722Z,9.36
2023-01-18T02:07:16.379Z,9.41
2023-01-18T02:12:20.564Z,9.34
2023-01-18T02:17:35.381Z,9.40
2023-01-18T02:23:15.824Z,9.44
2023-01-18T02:28:25.150Z,9.09
2023-01-18T02:33:41.539Z,9.03
2023-01-18T02:38:49.310Z,9.14
2023-01-18T02:44:14.733Z,9.02
2023-01-18T02:49:30.353Z,8.87
2023-01-18T02:54:39.408Z,8.97
2023-01-18T02:59:55.101Z,8.91
2023-01-18T03:04:58.708Z,9.10
2023-01-18T03:10:05.722Z,9.07
2023-01-18T03:15:14.265Z,8.92
2023-01-18T03:20:26.488Z,8.96
2023-01-18T03:25:33.863Z,8.92
2023-01-18T03:30:57.477Z,8.87
2023-01-18T03:36:03.408Z,9.04
2023-01-18T03:41:08.899Z,8.82
2023-01-18T03:46:15.134Z,8.86
2023-01-18T03:51:31.468Z,8.89
2023-01-18T03:56:54.916Z,8.91
2023-01-18T04:01:58.642Z,8.74
2023-01-18T04:07:01.792Z,8.75
2023-01-18T04:12:05.517Z,8.83
2023-01-18T04:17:09.192Z,9.15
2023-01-18T04:22:13.047Z,9.06
2023-01-18T04:27:16.777Z,9.20
2023-01-18T04:32:20.338Z,9.07
2023-01-18T04:37:30.563Z,8.79
2023-01-18T04:42:33.959Z,8.57
2023-01-18T04:47:39.733Z,8.77
2023-01-18T04:52:42.761Z,8.54
2023-01-18T04:57:46.194Z,8.30
2023-01-18T05:02:50.101Z,8.42
2023-01-18T05:07:53.549Z,8.79
2023-01-18T05:12:57.069Z,9.02
2023-01-18T05:18:00.266Z,9.17
2023-01-18T05:23:11.054Z,9.26
2023-01-18T05:28:14.732Z,9.17
2023-01-18T05:33:18.944Z,9.43
2023-01-18T05:38:23.999Z,9.24
2023-01-18T05:43:28.223Z,9.15
2023-01-18T05:48:32.006Z,9.22
2023-01-18T05:53:36.080Z,9.16
2023-01-18T05:58:39.985Z,9.34
2023-01-18T06:03:44.169Z,9.03
2023-01-18T06:08:47.759Z,8.82
2023-01-18T06:13:51.427Z,8.68
2023-01-18T06:18:55.124Z,8.52
2023-01-18T06:23:58.128Z,8.91
2023-01-18T06:29:02.182Z,8.56
2023-01-18T06:34:09.628Z,8.58
2023-01-18T06:39:13.838Z,8.63
2023-01-18T06:44:17.746Z,9.15
2023-01-18T06:49:21.049Z,9.50
2023-01-18T06:54:24.646Z,9.65
2023-01-18T06:59:28.861Z,9.46
2023-01-18T07:04:41.613Z,9.61
2023-01-18T07:09:44.699Z,9.45
2023-01-18T07:14:48.965Z,9.71
2023-01-18T07:19:52.154Z,10.12
2023-01-18T07:24:55.367Z,12.49
2023-01-18T07:29:58.427Z,13.13
2023-01-18T07:35:01.508Z,12.82
2023-01-18T07:40:05.745Z,13.72
2023-01-18T07:45:09.760Z,15.13
2023-01-18T07:50:14.546Z,16.44
2023-01-18T07:55:17.723Z,16.71
2023-01-18T08:00:21.437Z,16.81
2023-01-18T08:05:27.048Z,17.46
2023-01-18T08:10:30.418Z,17.66
2023-01-18T08:15:33.909Z,18.08
2023-01-18T08:20:37.030Z,17.04
2023-01-18T08:25:40.125Z,17.12
2023-01-18T08:30:46.357Z,17.70
2023-01-18T08:35:49.665Z,18.47
2023-01-18T08:40:52.921Z,18.23
2023-01-18T08:45:56.021Z,19.29
2023-01-18T08:51:03.784Z,18.41
2023-01-18T08:56:07.548Z,18.03
2023-01-18T09:01:11.670Z,18.44
2023-01-18T09:06:17.073Z,18.38
2023-01-18T09:11:20.828Z,18.29
2023-01-18T09:16:24.613Z,17.87
2023-01-18T09:21:28.957Z,18.33
2023-01-18T09:26:32.570Z,18.65
2023-01-18T09:31:35.788Z,18.28
2023-01-18T09:36:39.225Z,18.07
2023-01-18T09:41:44.893Z,17.30
2023-01-18T09:46:55.529Z,16.30
2023-01-18T09:52:01.959Z,15.62
2023-01-18T09:57:32.497Z,15.65
2023-01-18T10:02:42.058Z,14.90
2023-01-18T10:08:08.487Z,15.19
2023-01-18T10:13:30.317Z,16.61
2023-01-18T10:18:39.426Z,17.87
2023-01-18T10:24:12.554Z,17.48
2023-01-18T10:29:35.559Z,18.26
2023-01-18T10:34:46.187Z,16.65
2023-01-18T10:39:58.778Z,16.54
2023-01-18T10:45:02.074Z,15.98
2023-01-18T10:50:14.959Z,15.69
2023-01-18T10:55:19.981Z,15.52
2023-01-18T11:00:31.151Z,15.74
2023-01-18T11:05:40.552Z,15.96
2023-01-18T11:10:44.156Z,15.85
2023-01-18T11:15:47.723Z,16.19
2023-01-18T11:20:51.055Z,15.85
2023-01-18T11:26:01.971Z,15.61
2023-01-18T11:31:23.169Z,16.32
2023-01-18T11:36:44.308Z,15.44
2023-01-18T11:41:49.033Z,14.71
2023-01-18T11:46:55.746Z,14.21
2023-01-18T11:52:03.085Z,14.89
2023-01-18T11:57:08.001Z,15.81
2023-01-18T12:02:39.730Z,15.93
2023-01-18T12:08:04.155Z,16.49
2023-01-18T12:13:33.696Z,16.26
2023-01-18T12:18:43.600Z,15.51
2023-01-18T12:24:05.152Z,14.62
2023-01-18T12:29:20.804Z,14.44
2023-01-18T12:34:46.116Z,14.02
2023-01-18T12:39:54.326Z,14.04
2023-01-18T12:45:20.872Z,15.48
2023-01-18T12:50:27.646Z,15.11
2023-01-18T12:55:34.011Z,14.77
2023-01-18T13:00:39.932Z,15.07
2023-01-18T13:05:55.976Z,14.65
2023-01-18T13:11:10.816Z,14.92
2023-01-18T13:16:40.186Z,15.80
2023-01-18T13:21:46.077Z,15.92
2023-01-18T13:26:49.841Z,16.45
2023-01-18T13:31:53.292Z,16.45
2023-01-18T13:37:13.405Z,16.54
2023-01-18T13:42:26.739Z,16.30
2023-01-18T13:47:46.136Z,16.43
2023-01-18T13:53:15.128Z,16.22
2023-01-18T13:58:29.745Z,16.33
2023-01-18T14:03:39.320Z,15.78
2023-01-18T14:08:51.971Z,15.28
2023-01-18T14:13:55.024Z,15.18
2023-01-18T14:19:18.254Z,13.81
2023-01-18T14:24:21.690Z,13.29
2023-01-18T14:29:31.348Z,13.00
2023-01-18T14:34:40.295Z,12.93
2023-01-18T14:39:44.135Z,13.62
2023-01-18T14:44:58.157Z,13.81
2023-01-18T14:50:14.643Z,13.45
2023-01-18T14:55:32.578Z,13.34
2023-01-18T15:00:43.377Z,12.79
2023-01-18T15:05:51.599Z,12.73
2023-01-18T15:10:55.497Z,12.38
2023-01-18T15:16:02.130Z,12.20
2023-01-18T15:21:13.882Z,11.85
2023-01-18T15:26:16.897Z,11.94
2023-01-18T15:31:19.864Z,11.53
2023-01-18T15:36:23.533Z,11.24
2023-01-18T15:41:28.207Z,11.19
2023-01-18T15:46:33.096Z,10.95
2023-01-18T15:51:57.442Z,10.83
2023-01-18T15:57:31.166Z,10.69
2023-01-18T16:02:34.888Z,10.53
2023-01-18T16:07:43.873Z,10.21
2023-01-18T16:12:47.602Z,10.23
2023-01-18T16:17:56.306Z,10.28
2023-01-18T16:23:09.205Z,10.44
2023-01-18T16:28:21.175Z,10.32
2023-01-18T16:33:24.371Z,10.37
2023-01-18T16:38:27.377Z,10.02
2023-01-18T16:43:34.281Z,10.06
2023-01-18T16:48:38.042Z,9.79
2023-01-18T16:53:41.953Z,9.69
2023-01-18T16:58:44.961Z,10.02
2023-01-18T17:03:50.780Z,9.87
2023-01-18T17:08:54.229Z,10.01
2023-01-18T17:13:57.883Z,10.08
2023-01-18T17:19:01.451Z,9.92
2023-01-18T17:24:05.703Z,9.83
2023-01-18T17:29:14.035Z,9.69
2023-01-18T17:34:27.275Z,9.78
2023-01-18T17:39:43.924Z,9.91
2023-01-18T17:45:02.763Z,9.73
2023-01-18T17:50:09.238Z,9.81
2023-01-18T17:55:13.646Z,9.87
2023-01-18T18:00:18.307Z,10.07
2023-01-18T18:05:21.601Z,9.96
2023-01-18T18:10:25.240Z,9.92
2023-01-18T18:15:28.506Z,9.72
2023-01-18T18:20:32.444Z,9.77
2023-01-18T18:25:35.862Z,9.97
2023-01-18T18:30:39.555Z,9.90
2023-01-18T18:35:43.528Z,9.71
2023-01-18T18:40:47.598Z,9.86
2023-01-18T18:45:50.563Z,10.13
2023-01-18T18:50:54.525Z,9.94
2023-01-18T18:55:59.838Z,10.00
2023-01-18T19:01:04.009Z,10.19
2023-01-18T19:06:07.544Z,10.08
2023-01-18T19:11:10.673Z,9.98
2023-01-18T19:16:14.163Z,10.11
2023-01-18T19:21:19.029Z,10.04
2023-01-18T19:26:22.665Z,10.03
2023-01-18T19:31:26.152Z,9.82
2023-01-18T19:36:32.401Z,9.86
2023-01-18T19:41:43.624Z,9.78
2023-01-18T19:47:03.859Z,9.77
2023-01-18T19:52:14.408Z,9.86
2023-01-18T19:57:29.795Z,10.00
2023-01-18T20:02:39.491Z,10.01
2023-01-18T20:07:43.021Z,9.90
2023-01-18T20:12:48.328Z,9.89
2023-01-18T20:17:52.376Z,10.02
2023-01-18T20:22:55.974Z,10.02
2023-01-18T20:27:59.716Z,9.99
2023-01-18T20:33:03.278Z,10.02
2023-01-18T20:38:16.334Z,10.14
2023-01-18T20:43:24.279Z,10.06
2023-01-18T20:48:27.757Z,10.14
2023-01-18T20:53:32.823Z,10.18
2023-01-18T20:58:36.674Z,10.19
2023-01-18T21:03:39.754Z,10.22
2023-01-18T21:08:43.501Z,10.13
2023-01-18T21:13:46.963Z,10.12
2023-01-18T21:18:53.185Z,10.16
2023-01-18T21:23:56.352Z,10.18
2023-01-18T21:28:59.893Z,10.11
2023-01-18T21:34:03.647Z,10.07
2023-01-18T21:39:06.945Z,10.15
2023-01-18T21:44:31.725Z,10.04
2023-01-18T21:55:17.915Z,9.89
2023-01-18T22:00:21.160Z,10.15
2023-01-18T22:05:25.172Z,10.10
2023-01-18T22:10:28.818Z,10.12
2023-01-18T22:15:32.189Z,9.56
2023-01-18T22:20:36.357Z,8.93
2023-01-18T22:25:39.472Z,8.29
2023-01-18T22:30:42.552Z,7.96
2023-01-18T22:35:46.131Z,7.60
2023-01-18T22:40:49.320Z,7.65
2023-01-18T22:45:56.454Z,7.59
2023-01-18T22:51:00.387Z,7.43
2023-01-18T22:56:30.677Z,7.55
2023-01-18T23:01:34.486Z,7.30
2023-01-18T23:06:48.180Z,7.54
2023-01-18T23:11:51.977Z,7.69
2023-01-18T23:17:13.716Z,7.55
2023-01-18T23:22:17.186Z,7.94
2023-01-18T23:27:20.376Z,7.88
2023-01-18T23:32:30.846Z,7.87
2023-01-18T23:37:34.147Z,7.79
2023-01-18T23:42:55.969Z,7.68
2023-01-18T23:48:17.914Z,7.79
2023-01-18T23:53:39.585Z,7.82
2023-01-18T23:58:43.803Z,7.70
